Time;durP1;ratioP1;P1;durP2;ratioP2;P2;SDS_P1;SDS_P2;PMS_P1;PMS_P2;Temp;Humidity;BMP_temperature;BMP_pressure;BME280_temperature;BME280_humidity;BME280_pressure;Samples;Min_cycle;Max_cycle;Signal;HPM_P1;HPM_P2
2022/10/26 00:00:26;;;;;;;7.15;2.70;;;;;;;9.91;100.00;96004.06;1023803;28;20031;-71
2022/10/26 00:01:10;;;;;;;4.90;2.42;;;;;;;9.95;100.00;96009.59;1026887;28;20354;-71
2022/10/26 00:01:40;;;;;;;5.22;2.65;;;;;;;9.95;100.00;96013.00;1034359;28;20034;-72
2022/10/26 00:02:10;;;;;;;6.03;2.80;;;;;;;9.96;100.00;96012.00;1034545;28;20272;-69
2022/10/26 00:02:43;;;;;;;5.93;2.50;;;;;;;9.97;100.00;96010.94;1034758;28;20034;-69
2022/10/26 00:03:14;;;;;;;6.45;2.60;;;;;;;9.97;100.00;96007.53;1032373;28;20906;-70
2022/10/26 00:03:45;;;;;;;5.13;3.28;;;;;;;9.96;100.00;96016.41;1031363;28;20504;-71
2022/10/26 00:04:15;;;;;;;4.05;2.28;;;;;;;9.97;100.00;96013.56;1027117;28;20051;-71
2022/10/26 00:04:45;;;;;;;4.90;2.70;;;;;;;9.98;100.00;96004.66;1025753;28;20045;-70
2022/10/26 00:05:16;;;;;;;4.32;2.50;;;;;;;9.97;100.00;96008.31;1022984;28;20536;-71
2022/10/26 00:05:46;;;;;;;4.78;2.40;;;;;;;9.97;100.00;96013.56;1027078;28;20568;-72
2022/10/26 00:06:18;;;;;;;5.10;2.20;;;;;;;9.97;100.00;96005.69;1026903;28;20678;-73
2022/10/26 00:06:49;;;;;;;4.03;2.47;;;;;;;9.96;100.00;96006.75;1026436;28;20445;-73
2022/10/26 00:07:19;;;;;;;4.65;2.90;;;;;;;9.97;100.00;96010.16;1031035;28;20317;-72
2022/10/26 00:07:50;;;;;;;5.65;2.10;;;;;;;9.93;100.00;95995.97;1027122;28;20054;-73
2022/10/26 00:08:20;;;;;;;5.90;2.47;;;;;;;9.92;100.00;95995.16;1026917;28;20042;-70
2022/10/26 00:08:54;;;;;;;4.82;2.88;;;;;;;9.94;100.00;96000.97;1031019;28;20045;-71
2022/10/26 00:09:24;;;;;;;3.42;2.20;;;;;;;9.94;100.00;95992.31;1031209;28;20027;-71
2022/10/26 00:09:58;;;;;;;5.57;2.67;;;;;;;9.88;100.00;95988.84;1029000;28;20270;-71
2022/10/26 00:10:28;;;;;;;3.20;2.33;;;;;;;9.88;100.00;95988.84;1030320;28;20077;-71
2022/10/26 00:10:59;;;;;;;4.22;2.55;;;;;;;9.93;100.00;95985.50;1023096;28;20279;-71
2022/10/26 00:11:29;;;;;;;4.55;2.80;;;;;;;9.93;100.00;95988.13;1027489;28;20027;-71
2022/10/26 00:12:00;;;;;;;3.22;2.00;;;;;;;9.90;100.00;95977.09;1030993;28;20492;-73
2022/10/26 00:12:30;;;;;;;7.25;2.67;;;;;;;9.90;100.00;95984.16;1030448;28;20460;-70
2022/10/26 00:13:01;;;;;;;7.55;2.53;;;;;;;9.83;100.00;95965.25;1026960;28;20027;-70
2022/10/26 00:13:31;;;;;;;8.05;2.42;;;;;;;9.83;100.00;95965.25;1026029;28;20031;-71
2022/10/26 00:14:02;;;;;;;4.82;2.83;;;;;;;9.91;100.00;95973.41;1026943;28;20030;-71
2022/10/26 00:14:32;;;;;;;4.60;2.40;;;;;;;9.92;100.00;95968.94;1027043;28;20039;-72
2022/10/26 00:15:03;;;;;;;5.57;2.42;;;;;;;9.89;100.00;95964.22;1028544;28;20034;-71
2022/10/26 00:15:34;;;;;;;4.07;2.30;;;;;;;9.85;100.00;95963.13;1026981;28;20063;-71
2022/10/26 00:16:09;;;;;;;3.75;2.35;;;;;;;9.90;100.00;95965.81;1027107;28;20366;-73
2022/10/26 00:16:39;;;;;;;6.43;3.10;;;;;;;9.91;100.00;95970.00;1026113;28;20038;-71
2022/10/26 00:17:10;;;;;;;4.75;2.40;;;;;;;9.85;100.00;95953.44;1016409;29;20643;-71
2022/10/26 00:17:40;;;;;;;4.95;2.67;;;;;;;9.91;100.00;95967.38;1022757;29;20034;-71
2022/10/26 00:18:11;;;;;;;3.28;2.22;;;;;;;9.90;100.00;95960.56;1023442;28;20035;-70
2022/10/26 00:18:41;;;;;;;5.30;2.53;;;;;;;9.87;100.00;95958.44;1030962;28;20038;-71
2022/10/26 00:19:12;;;;;;;5.35;2.45;;;;;;;9.86;100.00;95954.25;1031296;28;20030;-71
2022/10/26 00:19:42;;;;;;;4.85;2.65;;;;;;;9.85;100.00;95952.66;1034865;28;20068;-71
2022/10/26 00:20:13;;;;;;;5.57;2.63;;;;;;;9.85;100.00;95948.19;1032937;28;20042;-71
2022/10/26 00:20:44;;;;;;;8.43;2.97;;;;;;;9.68;100.00;95924.75;1031131;28;20392;-71
2022/10/26 00:21:17;;;;;;;8.20;3.03;;;;;;;9.77;100.00;95940.81;1034996;28;20034;-72
2022/10/26 00:21:47;;;;;;;5.10;2.80;;;;;;;9.76;100.00;95943.69;1028014;28;20982;-71
2022/10/26 00:22:18;;;;;;;4.30;2.97;;;;;;;9.85;100.00;95950.03;1026450;28;20555;-71
2022/10/26 00:22:48;;;;;;;6.30;2.42;;;;;;;9.84;100.00;95949.25;1023043;29;20090;-71
2022/10/26 00:23:18;;;;;;;4.95;2.75;;;;;;;9.75;100.00;95935.03;1023201;28;20031;-73
2022/10/26 00:23:49;;;;;;;6.18;2.83;;;;;;;9.85;100.00;95953.44;1030846;28;20030;-71
2022/10/26 00:24:19;;;;;;;7.65;3.15;;;;;;;9.84;100.00;95953.72;1035174;28;20092;-72
2022/10/26 00:24:52;;;;;;;5.95;2.78;;;;;;;9.82;100.00;95958.41;1039192;28;20483;-72
2022/10/26 00:25:23;;;;;;;4.90;2.80;;;;;;;9.83;100.00;95960.00;1035333;28;20033;-71
2022/10/26 00:25:56;;;;;;;5.63;3.00;;;;;;;9.83;100.00;95960.00;1039034;28;20293;-71
2022/10/26 00:26:26;;;;;;;6.45;3.10;;;;;;;9.80;100.00;95966.53;1035144;28;20988;-71
2022/10/26 00:26:57;;;;;;;10.60;3.10;;;;;;;9.79;100.00;95967.56;1026801;28;20038;-73
2022/10/26 00:27:27;;;;;;;10.02;3.60;;;;;;;9.78;100.00;95971.22;1026611;28;20559;-72
2022/10/26 00:27:58;;;;;;;4.90;3.30;;;;;;;9.79;100.00;95972.00;1022961;29;20382;-73
2022/10/26 00:28:28;;;;;;;6.88;3.53;;;;;;;9.75;100.00;95968.31;1023142;28;20382;-71
2022/10/26 00:28:59;;;;;;;9.30;3.40;;;;;;;9.78;100.00;95978.28;1035010;28;20021;-71
2022/10/26 00:29:29;;;;;;;9.35;3.45;;;;;;;9.75;100.00;95973.56;1031079;28;20018;-72
2022/10/26 00:30:01;;;;;;;4.72;2.97;;;;;;;9.72;100.00;95968.81;1026948;28;20034;-71
2022/10/26 00:30:31;;;;;;;5.78;3.25;;;;;;;9.79;100.00;95979.88;1029634;28;20028;-71
2022/10/26 00:31:06;;;;;;;5.40;3.47;;;;;;;9.81;100.00;95983.81;1033380;28;20403;-72
2022/10/26 00:31:37;;;;;;;5.45;3.10;;;;;;;9.80;100.00;95987.50;1031865;28;20030;-72
2022/10/26 00:32:07;;;;;;;4.95;3.28;;;;;;;9.80;100.00;95987.50;1026950;28;20274;-72
2022/10/26 00:32:37;;;;;;;5.95;3.15;;;;;;;9.78;100.00;95978.28;1022291;29;20027;-72
2022/10/26 00:33:11;;;;;;;7.20;3.10;;;;;;;9.81;100.00;95983.81;1027071;28;20019;-71
2022/10/26 00:33:41;;;;;;;6.75;3.17;;;;;;;9.76;100.00;95972.50;1030893;28;20021;-71
2022/10/26 00:34:12;;;;;;;6.47;3.22;;;;;;;9.84;100.00;95987.78;1033009;28;20305;-71
2022/10/26 00:34:42;;;;;;;5.85;3.05;;;;;;;9.83;100.00;95979.13;1026401;28;20568;-73
2022/10/26 00:35:12;;;;;;;6.97;3.20;;;;;;;9.79;100.00;95979.88;1018875;29;20508;-73
2022/10/26 00:35:46;;;;;;;9.05;3.10;;;;;;;9.83;100.00;95984.38;1015139;29;20108;-70
2022/10/26 00:36:17;;;;;;;9.00;3.20;;;;;;;9.84;100.00;95982.53;1015997;29;20034;-72
2022/10/26 00:36:47;;;;;;;6.40;3.10;;;;;;;9.79;100.00;95985.94;1019952;28;20338;-71
2022/10/26 00:37:18;;;;;;;4.63;2.92;;;;;;;9.84;100.00;95979.91;1023510;28;20031;-70
2022/10/26 00:37:52;;;;;;;8.15;3.03;;;;;;;9.83;100.00;95980.97;1025884;28;20031;-70
2022/10/26 00:38:23;;;;;;;4.25;3.50;;;;;;;9.81;100.00;95972.56;1026381;28;20026;-73
2022/10/26 00:38:54;;;;;;;6.10;3.80;;;;;;;9.83;100.00;95978.34;1023644;28;20270;-72
2022/10/26 00:39:24;;;;;;;6.18;3.10;;;;;;;9.81;100.00;95983.81;1023796;28;20698;-73
2022/10/26 00:39:55;;;;;;;6.07;3.17;;;;;;;9.82;100.00;95984.59;1023233;28;20259;-73
2022/10/26 00:40:28;;;;;;;6.10;3.15;;;;;;;9.83;100.00;95979.13;1027008;28;20234;-70
2022/10/26 00:40:59;;;;;;;4.32;2.92;;;;;;;9.82;100.00;95980.16;1028031;28;20023;-71
2022/10/26 00:41:31;;;;;;;6.85;3.10;;;;;;;9.82;100.00;95980.16;1027320;28;20250;-72
2022/10/26 00:42:01;;;;;;;9.52;3.47;;;;;;;9.82;100.00;95979.38;1019056;29;20023;-71
2022/10/26 00:42:31;;;;;;;6.05;2.90;;;;;;;9.82;100.00;95979.38;1022061;29;20287;-71
2022/10/26 00:43:02;;;;;;;5.22;3.28;;;;;;;9.83;100.00;95973.09;1022952;28;20023;-71
2022/10/26 00:43:39;;;;;;;3.92;2.60;;;;;;;9.84;100.00;95978.09;1022941;29;20027;-70
2022/10/26 00:44:43;;;;;;;6.65;2.85;;;;;;;9.84;100.00;95975.47;1026001;28;20896;-72
2022/10/26 00:45:20;;;;;;;5.10;3.42;;;;;;;9.83;100.00;95976.50;1025609;28;20345;-72
2022/10/26 00:45:51;;;;;;;4.57;2.38;;;;;;;9.77;100.00;95971.47;1028302;28;20262;-72
2022/10/26 00:46:35;;;;;;;5.05;3.22;;;;;;;9.81;100.00;95970.72;1021950;29;20282;-70
2022/10/26 00:47:07;;;;;;;6.50;2.90;;;;;;;9.82;100.00;95976.75;1015146;29;20683;-72
2022/10/26 00:47:40;;;;;;;6.75;3.03;;;;;;;9.83;100.00;95978.34;1015042;29;20280;-72
2022/10/26 00:48:20;;;;;;;6.03;3.10;;;;;;;9.82;100.00;95976.75;1018866;29;20367;-73
2022/10/26 00:48:54;;;;;;;;;;;;;;;9.83;100.00;95971.28;1023111;29;21125;-72
2022/10/26 00:49:25;;;;;;;8.32;3.58;;;;;;;9.81;100.00;95967.31;1026484;28;20029;-72
2022/10/26 00:49:57;;;;;;;8.23;3.40;;;;;;;9.75;100.00;95965.69;1030576;28;20281;-72
2022/10/26 00:50:31;;;;;;;6.18;3.00;;;;;;;9.76;100.00;95959.41;1026540;28;20129;-72
2022/10/26 00:51:03;;;;;;;4.38;3.05;;;;;;;9.81;100.00;95972.56;1026485;28;20277;-71
2022/10/26 00:51:39;;;;;;;7.43;3.58;;;;;;;9.80;100.00;95966.53;1018665;29;20362;-72
2022/10/26 00:52:09;;;;;;;7.88;3.20;;;;;;;9.74;100.00;95956.25;1018702;29;20267;-71
2022/10/26 00:52:40;;;;;;;8.90;3.35;;;;;;;9.80;100.00;95971.78;1021796;29;20263;-71
2022/10/26 00:53:10;;;;;;;4.07;2.83;;;;;;;9.83;100.00;95973.88;1026122;28;20086;-72
2022/10/26 00:53:40;;;;;;;4.05;2.97;;;;;;;9.82;100.00;95961.81;1022967;29;20090;-71
2022/10/26 00:54:17;;;;;;;6.22;3.50;;;;;;;9.70;100.00;95945.50;1018933;29;20035;-72
2022/10/26 00:54:48;;;;;;;5.32;3.47;;;;;;;9.84;100.00;95962.34;1029620;28;20034;-72
2022/10/26 00:55:20;;;;;;;9.60;3.00;;;;;;;9.81;100.00;95962.84;1035046;28;20861;-72
2022/10/26 00:55:51;;;;;;;6.38;3.33;;;;;;;9.86;100.00;95972.59;1026933;28;20636;-72
2022/10/26 00:56:21;;;;;;;7.55;3.67;;;;;;;9.79;100.00;95957.09;1021020;29;20271;-73
2022/10/26 00:56:52;;;;;;;5.97;2.70;;;;;;;9.85;100.00;95963.13;1015000;29;20028;-70
2022/10/26 00:57:22;;;;;;;5.68;2.80;;;;;;;9.87;100.00;95969.72;1022938;29;20058;-74
2022/10/26 00:57:55;;;;;;;9.63;3.65;;;;;;;9.90;100.00;95971.06;1027182;28;20050;-71
2022/10/26 00:58:29;;;;;;;4.72;2.63;;;;;;;9.92;100.00;95974.19;1023390;28;20023;-71
2022/10/26 00:59:01;;;;;;;6.63;2.60;;;;;;;9.93;100.00;95978.41;1023533;28;20277;-71
2022/10/26 00:59:32;;;;;;;3.63;2.60;;;;;;;9.87;100.00;95963.69;1027968;28;20273;-71
2022/10/26 01:00:04;;;;;;;5.45;2.70;;;;;;;9.90;100.00;95971.06;1030788;28;20261;-71
2022/10/26 01:00:38;;;;;;;2.92;2.38;;;;;;;9.89;100.00;95964.22;1018955;29;20020;-71
2022/10/26 01:01:11;;;;;;;5.15;2.42;;;;;;;9.98;100.00;95967.94;1014963;29;20308;-70
2022/10/26 01:01:45;;;;;;;7.30;2.85;;;;;;;9.97;100.00;95970.84;1023407;28;20027;-71
2022/10/26 01:02:16;;;;;;;5.13;2.38;;;;;;;10.00;100.00;95973.75;1019658;29;20275;-70
2022/10/26 01:02:46;;;;;;;5.63;2.58;;;;;;;9.95;100.00;95957.97;1024547;28;20259;-72
2022/10/26 01:03:17;;;;;;;7.95;2.95;;;;;;;9.99;100.00;95966.91;1020126;29;20031;-72
2022/10/26 01:03:47;;;;;;;4.28;2.92;;;;;;;10.02;100.00;95971.63;1030885;28;20023;-71
2022/10/26 01:04:18;;;;;;;5.82;2.90;;;;;;;10.02;100.00;95971.63;1022968;29;20397;-72
2022/10/26 01:04:48;;;;;;;5.60;2.38;;;;;;;10.02;100.00;95971.63;1026795;28;20465;-71
2022/10/26 01:05:19;;;;;;;3.85;2.08;;;;;;;10.02;100.00;95963.78;1030823;28;20026;-71
2022/10/26 01:05:49;;;;;;;3.55;2.30;;;;;;;10.00;100.00;95959.84;1030946;28;20029;-71
2022/10/26 01:06:20;;;;;;;3.33;1.85;;;;;;;10.01;100.00;95964.81;1030847;28;20034;-72
2022/10/26 01:06:51;;;;;;;5.05;2.30;;;;;;;9.99;100.00;95961.66;1034791;28;20029;-70
2022/10/26 01:07:21;;;;;;;6.93;2.42;;;;;;;10.05;100.00;95968.50;1030807;28;20030;-71
2022/10/26 01:07:51;;;;;;;6.15;2.58;;;;;;;10.06;100.00;95975.34;1026952;28;20034;-72
2022/10/26 01:08:22;;;;;;;5.45;2.38;;;;;;;10.05;100.00;95973.75;1025416;28;20024;-71
2022/10/26 01:08:53;;;;;;;6.40;2.58;;;;;;;10.06;100.00;95970.13;1030798;28;20095;-72
2022/10/26 01:09:26;;;;;;;4.32;2.75;;;;;;;10.06;100.00;95974.53;1026812;28;20163;-72
2022/10/26 01:09:59;;;;;;;4.85;2.72;;;;;;;10.02;100.00;95958.53;1018736;29;20024;-71
2022/10/26 01:10:30;;;;;;;5.57;2.15;;;;;;;9.99;100.00;95958.25;1030863;28;20985;-72
2022/10/26 01:11:00;;;;;;;3.40;2.25;;;;;;;9.99;100.00;95947.75;1018611;29;20584;-71
2022/10/26 01:11:31;;;;;;;4.47;2.08;;;;;;;10.03;100.00;95954.88;1022621;29;20381;-71
2022/10/26 01:12:02;;;;;;;6.57;2.70;;;;;;;10.07;100.00;95958.56;1034906;28;20030;-72
2022/10/26 01:12:32;;;;;;;4.38;2.33;;;;;;;10.07;100.00;95969.06;1034194;28;20025;-70
2022/10/26 01:13:02;;;;;;;4.43;2.30;;;;;;;9.99;100.00;95964.28;1030785;28;20832;-72
2022/10/26 01:13:34;;;;;;;3.20;2.10;;;;;;;10.06;100.00;95953.56;1025777;28;20022;-71
2022/10/26 01:14:06;;;;;;;4.10;2.40;;;;;;;10.04;100.00;95955.66;1026706;28;20081;-71
2022/10/26 01:14:36;;;;;;;4.15;2.10;;;;;;;10.03;100.00;95948.84;1022889;29;20776;-71
2022/10/26 01:15:07;;;;;;;5.82;2.45;;;;;;;9.99;100.00;95947.75;1021263;28;20312;-71
2022/10/26 01:16:02;;;;;;;4.28;2.17;;;;;;;10.06;100.00;95953.56;1026646;28;20110;-72
2022/10/26 01:16:45;;;;;;;5.18;2.20;;;;;;;10.05;100.00;95958.03;1022417;29;20042;-71
2022/10/26 01:17:27;;;;;;;5.65;2.35;;;;;;;10.04;100.00;95955.66;1020639;28;20701;-74
2022/10/26 01:18:07;;;;;;;7.55;3.78;;;;;;;9.99;100.00;95948.53;1026694;28;20276;-72
2022/10/26 01:19:08;;;;;;;5.25;2.40;;;;;;;10.02;100.00;95958.53;1026809;28;20270;-72
2022/10/26 01:19:42;;;;;;;6.15;2.33;;;;;;;10.01;100.00;95959.59;1028152;28;20484;-71
2022/10/26 01:20:29;;;;;;;3.20;2.22;;;;;;;10.01;100.00;95959.59;1032143;28;20257;-73
2022/10/26 01:21:21;;;;;;;6.55;2.35;;;;;;;9.96;100.00;95954.31;1030820;28;20266;-70
2022/10/26 01:22:02;;;;;;;3.55;2.30;;;;;;;10.02;100.00;95965.59;1025847;28;20970;-72
2022/10/26 01:23:11;;;;;;;5.55;2.38;;;;;;;10.03;100.00;95962.75;1026021;28;20293;-71
2022/10/26 01:24:20;;;;;;;5.57;2.30;;;;;;;10.01;100.00;95967.44;1037523;28;20785;-71
2022/10/26 01:24:59;;;;;;;5.50;2.30;;;;;;;10.02;100.00;95969.00;1034991;28;20813;-71
2022/10/26 01:25:51;;;;;;;5.70;3.00;;;;;;;10.01;100.00;95970.06;1030221;28;20268;-72
2022/10/26 01:26:25;;;;;;;3.10;2.10;;;;;;;10.00;100.00;95971.13;1026928;28;20301;-72
2022/10/26 01:27:19;;;;;;;6.70;2.50;;;;;;;9.99;100.00;95974.75;1030922;28;20261;-73
2022/10/26 01:27:50;;;;;;;3.97;2.28;;;;;;;9.94;100.00;95964.25;1031020;28;20288;-71
2022/10/26 01:28:26;;;;;;;7.32;1.90;;;;;;;10.01;100.00;95977.94;1034569;28;20709;-71
2022/10/26 01:28:56;;;;;;;2.78;1.90;;;;;;;10.01;100.00;95977.94;1035139;28;20022;-71
2022/10/26 01:29:54;;;;;;;3.60;2.22;;;;;;;10.01;100.00;95977.94;1035105;28;21123;-72
2022/10/26 01:30:36;;;;;;;5.68;2.35;;;;;;;10.00;100.00;95976.34;1032988;28;20496;-71
2022/10/26 01:31:08;;;;;;;4.07;2.15;;;;;;;10.01;100.00;95977.94;1039018;28;20348;-72
2022/10/26 01:31:46;;;;;;;3.38;2.20;;;;;;;9.99;100.00;95977.38;1035235;28;20268;-71
2022/10/26 01:32:23;;;;;;;4.65;1.88;;;;;;;10.02;100.00;95982.13;1033136;28;20273;-72
2022/10/26 01:33:00;;;;;;;3.10;2.10;;;;;;;10.00;100.00;95972.94;1035236;28;20263;-70
2022/10/26 01:34:05;;;;;;;2.42;1.95;;;;;;;10.03;100.00;95978.47;1037845;28;20264;-71
2022/10/26 01:34:40;;;;;;;4.30;1.92;;;;;;;10.02;100.00;95979.50;1020409;28;20335;-70
2022/10/26 01:35:17;;;;;;;4.78;2.25;;;;;;;10.01;100.00;95977.94;1022944;29;20259;-72
2022/10/26 01:36:02;;;;;;;6.85;2.30;;;;;;;10.01;100.00;95977.94;1027225;28;20278;-70
2022/10/26 01:36:36;;;;;;;2.72;2.00;;;;;;;10.01;100.00;95974.53;1030948;28;20276;-70
2022/10/26 01:37:16;;;;;;;2.08;1.88;;;;;;;9.97;100.00;95976.88;1026913;28;20313;-71
2022/10/26 01:37:58;;;;;;;3.90;2.10;;;;;;;9.92;100.00;95963.72;1022908;28;20275;-71
2022/10/26 01:38:37;;;;;;;4.38;2.30;;;;;;;10.01;100.00;95977.16;1026863;28;20037;-72
2022/10/26 01:39:13;;;;;;;4.72;2.30;;;;;;;10.01;100.00;95977.94;1023103;28;20352;-71
2022/10/26 01:39:46;;;;;;;3.42;1.75;;;;;;;10.03;100.00;95975.84;1022989;29;20281;-71
2022/10/26 01:40:21;;;;;;;4.65;1.95;;;;;;;9.96;100.00;95969.25;1027985;28;20354;-73
2022/10/26 01:41:05;;;;;;;8.93;2.22;;;;;;;10.01;100.00;95979.78;1030846;28;21026;-72
2022/10/26 01:41:45;;;;;;;5.20;2.35;;;;;;;9.99;100.00;95977.38;1019132;29;20650;-70
2022/10/26 01:42:15;;;;;;;6.97;2.03;;;;;;;10.01;100.00;95977.16;1026463;28;20389;-72
2022/10/26 01:42:48;;;;;;;3.08;1.90;;;;;;;10.04;100.00;95982.69;1026585;28;20768;-73
2022/10/26 01:43:18;;;;;;;8.15;2.60;;;;;;;10.02;100.00;95965.59;1019049;28;20488;-72
2022/10/26 01:43:52;;;;;;;3.28;2.05;;;;;;;10.04;100.00;95974.03;1026872;28;20305;-71
2022/10/26 01:44:33;;;;;;;3.65;2.03;;;;;;;10.05;100.00;95973.75;1024102;28;20023;-70
2022/10/26 01:45:07;;;;;;;;;;;;;;;10.06;100.00;95970.13;1029192;28;20273;-71
2022/10/26 01:45:39;;;;;;;4.63;2.10;;;;;;;10.07;100.00;95961.19;1021322;28;19953;-72
2022/10/26 01:46:09;;;;;;;4.05;1.90;;;;;;;10.07;100.00;95955.94;1026418;28;20976;-71
2022/10/26 01:46:44;;;;;;;4.53;2.10;;;;;;;10.08;100.00;95949.66;1023030;29;20270;-71
2022/10/26 01:47:17;;;;;;;3.67;1.98;;;;;;;10.08;100.00;95952.28;1027047;28;20018;-73
2022/10/26 01:47:47;;;;;;;6.32;2.25;;;;;;;10.09;100.00;95953.06;1030739;28;20900;-71
2022/10/26 01:48:18;;;;;;;4.72;2.10;;;;;;;10.08;100.00;95957.53;1027070;28;20034;-70
2022/10/26 01:48:49;;;;;;;2.80;1.80;;;;;;;10.09;100.00;95964.38;1018914;29;20040;-71
2022/10/26 01:49:25;;;;;;;6.05;2.28;;;;;;;10.09;100.00;95974.03;1026973;28;20019;-71
2022/10/26 01:49:57;;;;;;;3.20;2.00;;;;;;;10.09;100.00;95987.16;1031084;28;21213;-70
2022/10/26 01:50:27;;;;;;;4.22;2.35;;;;;;;10.03;100.00;95981.09;1026897;28;20317;-72
2022/10/26 01:50:58;;;;;;;6.97;2.00;;;;;;;10.07;100.00;95987.41;1030854;28;20336;-69
2022/10/26 01:51:28;;;;;;;5.15;2.47;;;;;;;10.10;100.00;95989.53;1026680;28;20053;-71
2022/10/26 01:51:59;;;;;;;4.65;2.17;;;;;;;10.08;100.00;95978.50;1023080;29;20019;-70
2022/10/26 01:52:29;;;;;;;3.65;2.20;;;;;;;10.03;100.00;95967.22;1022294;29;20026;-72
2022/10/26 01:53:00;;;;;;;4.60;2.00;;;;;;;10.10;100.00;95986.91;1034940;28;20018;-70
2022/10/26 01:53:30;;;;;;;5.88;2.08;;;;;;;10.10;100.00;95976.44;1034930;28;20507;-71
2022/10/26 01:54:01;;;;;;;3.28;1.98;;;;;;;10.09;100.00;95971.41;1031034;28;20412;-74
2022/10/26 01:54:34;;;;;;;6.35;2.10;;;;;;;10.08;100.00;95978.50;1030817;28;20510;-72
2022/10/26 01:55:26;;;;;;;3.13;2.30;;;;;;;10.07;100.00;95974.31;1027393;28;20523;-70
2022/10/26 01:55:57;;;;;;;5.47;2.38;;;;;;;10.03;100.00;95969.81;1026528;28;20302;-71
2022/10/26 01:56:29;;;;;;;7.20;2.30;;;;;;;10.03;100.00;95975.06;1022806;28;20278;-71
2022/10/26 01:57:01;;;;;;;5.45;2.40;;;;;;;10.08;100.00;95975.88;1023101;29;20031;-73
2022/10/26 01:57:32;;;;;;;4.25;2.13;;;;;;;10.06;100.00;95977.97;1022628;29;20807;-72
2022/10/26 01:58:41;;;;;;;3.13;1.90;;;;;;;10.10;100.00;95981.66;1022862;29;20270;-71
2022/10/26 01:59:30;;;;;;;3.50;2.25;;;;;;;10.11;100.00;95983.25;1022686;29;20259;-70
2022/10/26 02:00:10;;;;;;;5.68;1.98;;;;;;;10.13;100.00;95980.38;1035849;28;20378;-70
2022/10/26 02:00:41;;;;;;;4.45;1.88;;;;;;;10.06;100.00;95975.34;1039113;28;20299;-71
2022/10/26 02:01:26;;;;;;;6.55;1.85;;;;;;;10.14;100.00;95984.56;1030859;28;20516;-71
2022/10/26 02:01:57;;;;;;;3.25;2.08;;;;;;;9.99;100.00;95956.41;1023108;29;21169;-70
2022/10/26 02:02:46;;;;;;;4.72;1.95;;;;;;;10.13;100.00;95981.16;1016089;29;20298;-70
2022/10/26 02:03:23;;;;;;;6.40;2.00;;;;;;;10.15;100.00;95975.66;1026718;28;20485;-71
2022/10/26 02:04:07;;;;;;;3.60;1.77;;;;;;;10.13;100.00;95978.53;1030232;28;20270;-71
2022/10/26 02:05:17;;;;;;;5.35;1.75;;;;;;;10.14;100.00;95977.50;1023014;29;20831;-70
2022/10/26 02:05:58;;;;;;;3.28;1.80;;;;;;;10.10;100.00;95973.81;1026780;28;20270;-70
2022/10/26 02:06:56;;;;;;;3.33;2.10;;;;;;;10.17;100.00;95991.16;1029720;28;20632;-72
2022/10/26 02:07:34;;;;;;;7.68;2.85;;;;;;;10.15;100.00;95989.53;1004070;29;20856;-70
2022/10/26 02:08:52;;;;;;;3.00;1.95;;;;;;;10.17;100.00;95989.31;1009108;29;20277;-73
2022/10/26 02:09:33;;;;;;;4.55;2.00;;;;;;;10.12;100.00;95984.03;1020800;28;20279;-71
2022/10/26 02:10:09;;;;;;;5.82;1.98;;;;;;;10.18;100.00;95987.47;1032168;28;20269;-72
2022/10/26 02:10:47;;;;;;;4.03;1.60;;;;;;;10.16;100.00;95993.00;1035160;28;20029;-71
2022/10/26 02:11:40;;;;;;;3.85;2.35;;;;;;;10.15;100.00;95986.94;1030894;28;20360;-71
2022/10/26 02:12:27;;;;;;;5.70;1.92;;;;;;;10.18;100.00;95996.13;1030422;28;20284;-71
2022/10/26 02:13:35;;;;;;;3.05;2.00;;;;;;;10.20;100.00;95990.66;1026861;28;20280;-72
2022/10/26 02:14:26;;;;;;;4.05;2.20;;;;;;;10.22;100.00;96002.44;1029697;28;20261;-71
2022/10/26 02:15:25;;;;;;;3.38;1.85;;;;;;;10.22;100.00;95999.81;1034404;28;20248;-71
2022/10/26 02:16:10;;;;;;;4.18;1.98;;;;;;;10.20;100.00;95995.88;1020822;29;20059;-71
2022/10/26 02:16:57;;;;;;;6.97;2.03;;;;;;;10.27;100.00;95991.25;1020197;28;20311;-71
2022/10/26 02:17:37;;;;;;;4.22;1.83;;;;;;;10.27;100.00;95999.09;1024495;28;20402;-73
2022/10/26 02:18:19;;;;;;;2.22;1.77;;;;;;;10.26;100.00;95993.06;1034783;28;20272;-72
2022/10/26 02:19:19;;;;;;;4.32;1.92;;;;;;;10.21;100.00;95986.97;1034846;28;20033;-72
2022/10/26 02:19:53;;;;;;;5.05;2.15;;;;;;;10.24;100.00;95991.72;1034608;28;20984;-69
2022/10/26 02:20:27;;;;;;;3.45;1.83;;;;;;;10.21;100.00;95981.72;1034148;28;20419;-72
2022/10/26 02:21:02;;;;;;;6.63;1.75;;;;;;;10.27;100.00;95991.25;1030613;28;20269;-71
2022/10/26 02:21:38;;;;;;;3.22;1.83;;;;;;;10.23;100.00;95983.06;1026956;28;20649;-71
2022/10/26 02:22:23;;;;;;;5.05;2.10;;;;;;;10.27;100.00;95986.00;1022552;29;20262;-73
2022/10/26 02:22:54;;;;;;;4.03;1.90;;;;;;;10.27;100.00;95980.75;1026739;28;20691;-72
2022/10/26 02:23:27;;;;;;;8.50;1.80;;;;;;;10.25;100.00;95982.78;1033823;28;20268;-71
2022/10/26 02:23:58;;;;;;;2.20;1.80;;;;;;;10.25;100.00;95972.31;1030796;28;20281;-73
2022/10/26 02:24:28;;;;;;;1.60;1.42;;;;;;;10.23;100.00;95969.13;1022477;29;20035;-71
2022/10/26 02:25:00;;;;;;;3.80;2.00;;;;;;;10.22;100.00;95968.34;1018635;29;20114;-71
2022/10/26 02:25:32;;;;;;;4.25;1.80;;;;;;;10.28;100.00;95977.06;1034382;28;20112;-72
2022/10/26 02:26:03;;;;;;;2.58;1.88;;;;;;;10.27;100.00;95976.28;1034993;28;20786;-70
2022/10/26 02:26:33;;;;;;;3.92;1.80;;;;;;;10.26;100.00;95968.66;1028856;28;20289;-69
2022/10/26 02:27:04;;;;;;;3.83;2.08;;;;;;;10.27;100.00;95965.78;1029072;28;20025;-73
2022/10/26 02:27:39;;;;;;;2.75;1.80;;;;;;;10.30;100.00;95975.00;1028558;28;20018;-70
2022/10/26 02:28:12;;;;;;;3.45;1.90;;;;;;;10.31;100.00;95968.69;1026321;28;20265;-71
2022/10/26 02:28:44;;;;;;;4.63;1.80;;;;;;;10.28;100.00;95966.56;1030234;28;20319;-71
2022/10/26 02:29:16;;;;;;;2.75;2.10;;;;;;;10.31;100.00;95966.06;1022400;29;20270;-71
2022/10/26 02:29:47;;;;;;;4.45;2.17;;;;;;;10.31;100.00;95960.84;1026358;28;20310;-72
2022/10/26 02:30:17;;;;;;;2.53;1.90;;;;;;;10.30;100.00;95960.03;1026373;28;20262;-71
2022/10/26 02:30:49;;;;;;;4.35;1.90;;;;;;;10.30;100.00;95961.88;1022116;28;20031;-70
2022/10/26 02:31:19;;;;;;;3.53;1.83;;;;;;;10.27;100.00;95954.53;1026436;28;20101;-72
2022/10/26 02:31:50;;;;;;;5.68;2.10;;;;;;;10.31;100.00;95960.84;1030543;28;20270;-70
2022/10/26 02:32:21;;;;;;;3.83;2.00;;;;;;;10.30;100.00;95964.50;1033687;28;20022;-69
2022/10/26 02:32:53;;;;;;;6.15;2.30;;;;;;;10.30;100.00;95956.63;1021865;28;20030;-72
2022/10/26 02:33:25;;;;;;;3.25;2.28;;;;;;;10.29;100.00;95955.03;1026357;28;20781;-72
2022/10/26 02:33:56;;;;;;;4.60;1.98;;;;;;;10.29;100.00;95960.28;1026421;28;20266;-72
2022/10/26 02:34:26;;;;;;;3.45;1.60;;;;;;;10.21;100.00;95940.56;1021596;29;20297;-73
2022/10/26 02:34:57;;;;;;;5.63;2.30;;;;;;;10.28;100.00;95956.09;1026246;28;20066;-71
2022/10/26 02:35:31;;;;;;;2.95;1.70;;;;;;;10.28;100.00;95950.84;1030329;28;20332;-72
2022/10/26 02:36:02;;;;;;;6.47;2.35;;;;;;;10.26;100.00;95953.72;1037717;28;20029;-73
2022/10/26 02:36:34;;;;;;;4.63;1.90;;;;;;;10.25;100.00;95956.56;1034461;28;20265;-72
2022/10/26 02:37:05;;;;;;;3.95;2.05;;;;;;;10.23;100.00;95954.22;1025900;28;20278;-71
2022/10/26 02:37:35;;;;;;;4.68;2.00;;;;;;;10.06;100.00;95932.59;1026246;28;20282;-72
2022/10/26 02:38:09;;;;;;;4.28;2.33;;;;;;;10.24;100.00;95958.41;1030323;28;20033;-71
2022/10/26 02:38:40;;;;;;;10.50;2.28;;;;;;;10.21;100.00;95951.03;1034382;28;20105;-72
2022/10/26 02:39:10;;;;;;;6.25;2.40;;;;;;;10.20;100.00;95956.56;1029972;28;20276;-71
2022/10/26 02:39:41;;;;;;;3.15;2.08;;;;;;;10.19;100.00;95947.88;1030561;28;20045;-72
2022/10/26 02:40:14;;;;;;;4.18;2.60;;;;;;;10.25;100.00;95961.81;1030284;28;20908;-71
2022/10/26 02:40:45;;;;;;;3.72;2.00;;;;;;;10.13;100.00;95936.59;1026381;28;20015;-71
2022/10/26 02:41:19;;;;;;;4.18;2.00;;;;;;;10.21;100.00;95958.91;1029779;28;20280;-74
2022/10/26 02:41:49;;;;;;;3.78;2.15;;;;;;;10.21;100.00;95951.03;1026391;28;20286;-73
2022/10/26 02:42:20;;;;;;;4.80;2.17;;;;;;;10.22;100.00;95947.38;1025659;28;20274;-72
2022/10/26 02:42:51;;;;;;;5.93;2.08;;;;;;;10.13;100.00;95936.59;1029894;28;20077;-72
2022/10/26 02:43:22;;;;;;;3.50;1.83;;;;;;;10.17;100.00;95942.13;1022380;29;20038;-73
2022/10/26 02:43:56;;;;;;;4.53;2.20;;;;;;;10.18;100.00;95950.75;1022178;29;20273;-73